Flight Track Log - Related Links

Times and Time Zones

All times are in EDT time to prevent confusion due to time zone crossing. See the WAV261 flight status page for this flight to view local times or setup timezone preferences in your user account.

Time Position Orientation Groundspeed Altitude Reporting Facility
EDT Latitude Longitude Course Direction KTS MPH feet Rate Location/Type
Wed 10:52:00 PM 66.3151 -145.6198 219° Southwest  Level FlightAware Approximate
Wed 10:52:39 PM 66.2667 -145.8667 212° Southwest 120 138 12,000  Level Anchorage Center
Wed 10:53:00 PM 66.2807 -145.6804 212° Southwest  Level FlightAware Approximate
Wed 10:53:39 PM 66.2333 -145.9167 211° Southwest 150 173 12,600  Level Anchorage Center
Wed 10:54:00 PM 66.2450 -145.7364 212° Southwest  Level FlightAware Approximate
Wed 10:54:40 PM 66.1833 -145.9833 208° Southwest 180 207 12,700  Level Anchorage Center
Wed 10:55:00 PM 66.2094 -145.7923 212° Southwest  Level FlightAware Approximate
Wed 10:55:40 PM 66.1500 -146.0333 211° Southwest 160 184 12,700  Level Anchorage Center
Wed 10:56:00 PM 66.1736 -145.8479 212° Southwest  Level FlightAware Approximate
Wed 10:56:41 PM 66.1000 -146.0833 202° Southwest 170 196 12,700  Level Anchorage Center
Wed 10:57:00 PM 66.1379 -145.9035 212° Southwest  Level FlightAware Approximate
Wed 10:57:41 PM 66.0667 -146.1500 219° Southwest 180 207 12,600  Level Anchorage Center
Wed 10:58:00 PM 66.1022 -145.9589 212° Southwest  Level FlightAware Approximate
Wed 10:58:41 PM 66.0167 -146.2000 202° Southwest 170 196 12,600  Level Anchorage Center
Wed 10:59:42 PM 65.9667 -146.2333 195° South 180 207 12,700 50 Climbing Anchorage Center
Wed 11:00:42 PM 65.9333 -146.3000 219° Southwest 170 196 12,700  Level Anchorage Center
Wed 11:01:42 PM 65.8833 -146.3500 202° Southwest 180 207 12,700 -50 Level Anchorage Center
Wed 11:02:43 PM 65.8500 -146.4000 212° Southwest 180 207 12,600 -50 Descending Anchorage Center
Wed 11:03:43 PM 65.8000 -146.4500 202° Southwest 180 207 12,600  Level Anchorage Center
Wed 11:04:43 PM 65.7667 -146.5167 219° Southwest 160 184 12,600 99 Level Anchorage Center
Wed 11:05:44 PM 65.7167 -146.5667 202° Southwest 160 184 12,800 -50 Climbing Anchorage Center
Wed 11:06:44 PM 65.6833 -146.6333 219° Southwest 180 207 12,500 -400 Descending Anchorage Center
Wed 11:07:44 PM 65.6333 -146.6833 202° Southwest 180 207 12,000 -496 Descending Anchorage Center
Wed 11:08:45 PM 65.5833 -146.7500 209° Southwest 170 196 11,500 -496 Descending Anchorage Center
Wed 11:09:45 PM 65.5500 -146.8000 212° Southwest 170 196 11,000 -496 Descending Anchorage Center
Wed 11:10:46 PM 65.5000 -146.8500 203° Southwest 170 196 10,500 -492 Descending Anchorage Center
Wed 11:12:00 PM 65.4526 -146.9088 207° Southwest  Level FlightAware Approximate
Wed 11:19:00 PM 65.1827 -147.2251 211° Southwest  Level FlightAware Approximate
Wed 11:20:00 PM 65.1457 -147.2787 211° Southwest  Level FlightAware Approximate
Wed 11:21:00 PM 65.1088 -147.3321 211° Southwest  Level FlightAware Approximate
Wed 11:22:00 PM 65.0718 -147.3854 211° Southwest  Level FlightAware Approximate
Wed 11:23:00 PM 65.0336 -147.4331 203° Southwest  Level FlightAware Approximate
Wed 11:24:00 PM 64.9993 -147.4956 218° Southwest  Level FlightAware Approximate
Wed 11:25:00 PM 64.9651 -147.5581 218° Southwest  Level FlightAware Approximate
Wed 11:26:00 PM 64.9308 -147.6205 218° Southwest  Level FlightAware Approximate
Wed 11:27:00 PM 64.8965 -147.6827 218° Southwest  Level FlightAware Approximate
Wed 11:28:00 PM 64.8622 -147.7447 218° Southwest  Level FlightAware Approximate
Wed 11:29:00 PM 64.8272 -147.8047 215° Southwest  Level FlightAware Approximate
Wed 11:30:00 PM 64.8151 -147.8564 215° Southwest  Level Estimated
Wed 11:31:00 PM 64.8151 -147.8564 215° Southwest  Level Estimated
Wed 11:32:00 PM 64.8151 -147.8564 215° Southwest  Level Estimated
Wed 11:33:00 PM 64.8151 -147.8564 215° Southwest  Level Estimated
Wed 11:34:00 PM 64.8151 -147.8564 215° Southwest  Level Estimated
Wed 11:35:00 PM 64.8151 -147.8564 215° Southwest  Level Estimated
Wed 11:36:00 PM 64.8151 -147.8564 215° Southwest  Level Estimated
Wed 11:37:00 PM 64.8151 -147.8564 215° Southwest  Level Estimated
Wed 11:38:00 PM 64.8151 -147.8564 215° Southwest  Level Estimated
Wed 11:39:00 PM 64.8151 -147.8564 215° Southwest  Level Estimated
Wed 11:40:00 PM 64.8151 -147.8564 215° Southwest  Level Estimated
Wed 11:41:00 PM 64.8151 -147.8564 215° Southwest  Level Estimated
Wed 11:42:00 PM 64.8151 -147.8564 215° Southwest  Level Estimated
Wed 11:43:00 PM 64.8151 -147.8564 215° Southwest  Level Estimated
Wed 11:44:00 PM 64.8151 -147.8564 215° Southwest  Level Estimated
Wed 11:45:00 PM 64.8151 -147.8564 215° Southwest  Level Estimated

Login

Don't have an account? Register now (free) for customized features, flight alerts, and more!